createdAt,value
2022-08-11T00:00:10.974Z,39.28
2022-08-11T00:02:16.370Z,39.12
2022-08-11T00:04:22.337Z,39.48
2022-08-11T00:06:28.357Z,40.07
2022-08-11T00:08:33.093Z,39.87
2022-08-11T00:10:38.310Z,40.03
2022-08-11T00:12:43.873Z,39.61
2022-08-11T00:14:58.807Z,39.69
2022-08-11T00:17:04.727Z,39.95
2022-08-11T00:19:09.278Z,40.03
2022-08-11T00:21:14.395Z,39.98
2022-08-11T00:23:20.360Z,40.26
2022-08-11T00:25:24.454Z,40.24
2022-08-11T00:27:34.594Z,39.96
2022-08-11T00:29:38.161Z,39.99
2022-08-11T00:32:00.083Z,40.61
2022-08-11T00:34:07.787Z,40.76
2022-08-11T00:36:12.912Z,41.08
2022-08-11T00:38:17.721Z,41.04
2022-08-11T00:40:26.890Z,40.66
2022-08-11T00:42:44.603Z,40.98
2022-08-11T00:45:04.202Z,41.31
2022-08-11T00:47:18.340Z,41.29
2022-08-11T00:49:39.345Z,41.74
2022-08-11T00:52:04.687Z,41.53
2022-08-11T00:54:29.730Z,42.27
2022-08-11T00:57:37.135Z,42.24
2022-08-11T01:00:04.477Z,42.29
2022-08-11T01:02:17.322Z,42.58
2022-08-11T01:05:08.285Z,42.39
2022-08-11T01:08:01.498Z,42.55
2022-08-11T01:10:27.463Z,42.63
2022-08-11T01:12:50.762Z,42.53
2022-08-11T01:15:26.802Z,43.23
2022-08-11T01:18:14.782Z,43.21
2022-08-11T01:20:55.119Z,43.22
2022-08-11T01:23:49.003Z,43.15
2022-08-11T01:26:34.831Z,43.36
2022-08-11T01:29:18.487Z,42.60
2022-08-11T01:31:46.327Z,43.21
2022-08-11T01:34:34.718Z,43.56
2022-08-11T01:37:17.214Z,43.80
2022-08-11T01:39:52.884Z,43.61
2022-08-11T01:42:30.992Z,43.32
2022-08-11T01:45:12.087Z,43.99
2022-08-11T01:47:53.058Z,44.24
2022-08-11T01:50:10.651Z,44.50
2022-08-11T01:52:40.025Z,43.95
2022-08-11T01:54:48.996Z,44.75
2022-08-11T01:57:06.883Z,44.67
2022-08-11T01:59:18.134Z,44.95
2022-08-11T02:01:35.448Z,45.33
2022-08-11T02:03:48.231Z,44.78
2022-08-11T02:06:01.577Z,45.30
2022-08-11T02:08:16.096Z,44.80
2022-08-11T02:10:50.484Z,45.22
2022-08-11T02:13:00.494Z,45.34
2022-08-11T02:15:12.720Z,46.01
2022-08-11T02:17:20.780Z,45.72
2022-08-11T02:19:59.915Z,45.68
2022-08-11T02:22:27.382Z,45.45
2022-08-11T02:24:41.121Z,46.02
2022-08-11T02:26:49.469Z,45.64
2022-08-11T02:29:06.380Z,45.49
2022-08-11T02:32:10.889Z,45.65
2022-08-11T02:34:03.561Z,45.67
2022-08-11T02:36:11.730Z,46.08
2022-08-11T02:38:26.476Z,45.32
2022-08-11T02:40:45.232Z,45.63
2022-08-11T02:43:03.959Z,45.34
2022-08-11T02:45:18.984Z,45.45
2022-08-11T02:47:38.267Z,46.05
2022-08-11T02:50:06.223Z,46.01
2022-08-11T02:52:31.351Z,46.16
2022-08-11T02:54:43.510Z,46.01
2022-08-11T02:56:53.888Z,46.41
2022-08-11T02:59:21.267Z,46.20
2022-08-11T03:01:34.156Z,46.16
2022-08-11T03:03:47.937Z,45.65
2022-08-11T03:06:04.640Z,45.30
2022-08-11T03:08:23.205Z,46.26
2022-08-11T03:10:33.580Z,45.89
2022-08-11T03:13:05.921Z,45.54
2022-08-11T03:15:34.467Z,46.04
2022-08-11T03:17:43.050Z,46.79
2022-08-11T03:20:01.195Z,45.65
2022-08-11T03:22:12.115Z,46.58
2022-08-11T03:24:23.459Z,46.38
2022-08-11T03:26:34.411Z,46.62
2022-08-11T03:28:46.576Z,46.51
2022-08-11T03:30:57.569Z,46.80
2022-08-11T03:33:38.410Z,46.64
2022-08-11T03:35:50.535Z,45.92
2022-08-11T03:38:02.388Z,46.57
2022-08-11T03:40:17.333Z,46.70
2022-08-11T03:42:33.304Z,47.26
2022-08-11T03:44:51.326Z,46.84
2022-08-11T03:47:34.130Z,46.90
2022-08-11T03:49:53.873Z,46.37
2022-08-11T03:52:08.665Z,47.23
2022-08-11T03:54:21.296Z,46.83
2022-08-11T03:57:11.791Z,46.53
2022-08-11T04:00:11.132Z,46.38
2022-08-11T04:02:39.342Z,46.17
2022-08-11T04:05:33.615Z,46.25
2022-08-11T04:08:33.880Z,46.66
2022-08-11T04:11:09.069Z,46.64
2022-08-11T04:13:41.958Z,46.53
2022-08-11T04:16:11.304Z,45.85
2022-08-11T04:18:40.973Z,47.11
2022-08-11T04:21:27.746Z,47.19
2022-08-11T04:24:35.484Z,47.24
2022-08-11T04:27:05.208Z,47.22
2022-08-11T04:29:36.203Z,47.12
2022-08-11T04:32:27.808Z,47.42
2022-08-11T04:34:43.651Z,47.23
2022-08-11T04:37:24.901Z,47.31
2022-08-11T04:39:44.648Z,46.01
2022-08-11T04:43:06.441Z,46.29
2022-08-11T04:45:37.229Z,46.34
2022-08-11T04:48:21.636Z,45.85
2022-08-11T04:51:08.764Z,46.72
2022-08-11T04:54:01.234Z,46.95
2022-08-11T04:56:30.408Z,47.33
2022-08-11T04:59:08.202Z,46.32
2022-08-11T05:01:43.746Z,46.89
2022-08-11T05:04:40.033Z,47.00
2022-08-11T05:07:14.185Z,47.02
2022-08-11T05:09:24.859Z,46.72
2022-08-11T05:12:01.084Z,47.01
2022-08-11T05:14:52.825Z,46.25
2022-08-11T05:17:17.099Z,47.07
2022-08-11T05:19:40.630Z,47.05
2022-08-11T05:22:07.052Z,47.34
2022-08-11T05:24:44.329Z,46.84
2022-08-11T05:27:13.367Z,46.63
2022-08-11T05:29:54.534Z,45.95
2022-08-11T05:32:18.150Z,46.14
2022-08-11T05:34:43.958Z,46.91
2022-08-11T05:36:51.627Z,46.79
2022-08-11T05:39:16.638Z,46.42
2022-08-11T05:41:40.233Z,45.87
2022-08-11T05:44:19.618Z,46.78
2022-08-11T05:46:43.283Z,46.68
2022-08-11T05:49:05.497Z,46.19
2022-08-11T05:51:30.233Z,46.67
2022-08-11T05:53:51.798Z,46.65
2022-08-11T05:56:14.238Z,45.97
2022-08-11T05:58:18.661Z,46.34
2022-08-11T06:00:24.267Z,44.91
2022-08-11T06:02:28.987Z,44.24
2022-08-11T06:04:35.237Z,44.60
2022-08-11T06:06:45.387Z,44.75
2022-08-11T06:08:50.907Z,44.58
2022-08-11T06:11:00.856Z,43.46
2022-08-11T06:13:05.427Z,44.08
2022-08-11T06:15:12.186Z,42.98
2022-08-11T06:17:23.283Z,42.97
2022-08-11T06:19:34.545Z,42.78
2022-08-11T06:21:39.067Z,41.94
2022-08-11T06:23:45.507Z,42.26
2022-08-11T06:25:49.935Z,42.32
2022-08-11T06:27:57.308Z,41.33
2022-08-11T06:30:02.165Z,41.05
2022-08-11T06:32:07.428Z,41.48
2022-08-11T06:34:27.282Z,41.18
2022-08-11T06:36:36.687Z,40.93
2022-08-11T06:38:54.677Z,41.36
2022-08-11T06:41:19.917Z,41.30
2022-08-11T06:43:27.293Z,41.15
2022-08-11T06:45:38.097Z,40.53
2022-08-11T06:47:47.641Z,41.27
2022-08-11T06:50:09.295Z,40.92
2022-08-11T06:52:35.193Z,40.98
2022-08-11T06:54:44.680Z,40.65
2022-08-11T06:57:28.854Z,40.54
2022-08-11T06:59:48.196Z,40.82
2022-08-11T07:02:02.796Z,40.76
2022-08-11T07:04:10.541Z,41.58
2022-08-11T07:06:36.585Z,40.26
2022-08-11T07:09:50.522Z,40.82
2022-08-11T07:12:27.892Z,39.82
2022-08-11T07:14:50.018Z,40.03
2022-08-11T07:16:55.203Z,39.52
2022-08-11T07:19:21.214Z,39.08
2022-08-11T07:22:01.146Z,39.40
2022-08-11T07:24:58.626Z,39.21
2022-08-11T07:27:14.294Z,38.96
2022-08-11T07:29:21.386Z,39.02
2022-08-11T07:31:32.574Z,38.91
2022-08-11T07:34:08.374Z,38.58
2022-08-11T07:36:12.630Z,38.67
2022-08-11T07:38:22.933Z,38.16
2022-08-11T07:40:30.057Z,38.22
2022-08-11T07:42:36.605Z,38.16
2022-08-11T07:44:57.036Z,37.97
2022-08-11T07:47:18.822Z,37.76
2022-08-11T07:49:39.908Z,37.40
2022-08-11T07:52:02.276Z,37.32
2022-08-11T07:54:07.728Z,37.21
2022-08-11T07:56:21.874Z,36.86
2022-08-11T07:59:06.266Z,36.82
2022-08-11T08:01:37.224Z,36.38
2022-08-11T08:03:59.701Z,36.75
2022-08-11T08:06:28.515Z,35.58
2022-08-11T08:08:59.957Z,36.43
2022-08-11T08:11:27.147Z,35.80
2022-08-11T08:13:51.693Z,35.82
2022-08-11T08:16:14.229Z,35.28
2022-08-11T08:18:26.642Z,35.18
2022-08-11T08:20:39.693Z,34.39
2022-08-11T08:22:48.661Z,33.94
2022-08-11T08:24:53.132Z,34.52
2022-08-11T08:27:00.912Z,34.75
2022-08-11T08:29:25.664Z,35.33
2022-08-11T08:31:29.342Z,34.91
2022-08-11T08:33:34.525Z,34.85
2022-08-11T08:35:54.770Z,35.45
2022-08-11T08:37:59.937Z,34.42
2022-08-11T08:40:03.642Z,34.08
2022-08-11T08:42:12.101Z,33.41
2022-08-11T08:46:46.135Z,33.53
2022-08-11T08:48:53.213Z,34.09
2022-08-11T08:51:20.114Z,33.54
2022-08-11T08:53:29.537Z,33.64
2022-08-11T08:55:33.966Z,33.41
2022-08-11T08:57:39.770Z,33.61
2022-08-11T08:59:49.091Z,32.69
2022-08-11T09:01:59.173Z,33.42
2022-08-11T09:04:11.767Z,32.79
2022-08-11T09:06:17.340Z,32.27
2022-08-11T09:08:21.762Z,32.73
2022-08-11T09:10:26.871Z,32.30
2022-08-11T09:12:38.373Z,32.30
2022-08-11T09:15:03.522Z,31.87
2022-08-11T09:17:07.057Z,31.52
2022-08-11T09:19:17.559Z,30.98
2022-08-11T09:21:48.518Z,30.64
2022-08-11T09:24:22.098Z,31.39
2022-08-11T09:26:47.585Z,30.93
2022-08-11T09:28:51.568Z,30.93
2022-08-11T09:30:55.240Z,31.22
2022-08-11T09:33:04.834Z,30.73
2022-08-11T09:35:11.610Z,30.28
2022-08-11T09:37:55.603Z,30.45
2022-08-11T09:40:16.217Z,29.71
2022-08-11T09:42:23.740Z,29.93
2022-08-11T09:44:46.003Z,29.46
2022-08-11T09:46:57.816Z,29.69
2022-08-11T09:49:02.769Z,28.94
2022-08-11T09:51:09.312Z,28.93
2022-08-11T09:53:34.917Z,28.20
2022-08-11T09:55:37.571Z,27.73
2022-08-11T09:58:00.223Z,27.12
2022-08-11T10:00:12.639Z,27.47
2022-08-11T10:02:18.471Z,27.22
2022-08-11T10:04:31.169Z,26.70
2022-08-11T10:06:56.948Z,26.18
2022-08-11T10:09:00.902Z,26.28
2022-08-11T10:11:04.813Z,25.94
2022-08-11T10:14:10.054Z,25.75
2022-08-11T10:15:38.399Z,25.30
2022-08-11T10:18:07.467Z,25.70
2022-08-11T10:20:12.547Z,25.99
2022-08-11T10:22:37.079Z,25.28
2022-08-11T10:25:02.751Z,25.11
2022-08-11T10:27:06.489Z,25.25
2022-08-11T10:29:27.243Z,25.30
2022-08-11T10:32:04.930Z,25.23
2022-08-11T10:34:11.858Z,25.14
2022-08-11T10:36:20.376Z,24.77
2022-08-11T10:38:26.676Z,24.59
2022-08-11T10:40:30.634Z,24.74
2022-08-11T10:42:57.805Z,25.03
2022-08-11T10:45:04.721Z,24.70
2022-08-11T10:47:27.544Z,25.05
2022-08-11T10:49:32.345Z,24.73
2022-08-11T10:51:54.095Z,24.66
2022-08-11T10:54:21.455Z,24.56
2022-08-11T10:56:43.381Z,23.71
2022-08-11T10:58:49.181Z,23.76
2022-08-11T11:00:56.899Z,23.81
2022-08-11T11:03:07.096Z,23.98
2022-08-11T11:05:31.267Z,22.98
2022-08-11T11:07:44.136Z,22.83
2022-08-11T11:09:52.048Z,22.97
2022-08-11T11:12:18.530Z,22.73
2022-08-11T11:14:46.696Z,22.54
2022-08-11T11:17:10.427Z,22.52
2022-08-11T11:19:20.740Z,23.35
2022-08-11T11:21:25.983Z,22.10
2022-08-11T11:23:37.451Z,22.53
2022-08-11T11:26:11.035Z,22.48
2022-08-11T11:28:37.222Z,21.85
2022-08-11T11:30:49.628Z,22.39
2022-08-11T11:33:04.250Z,22.09
2022-08-11T11:35:44.596Z,22.30
2022-08-11T11:38:03.765Z,22.04
2022-08-11T11:40:11.527Z,22.36
2022-08-11T11:42:18.777Z,21.69
2022-08-11T11:44:23.742Z,22.07
2022-08-11T11:46:30.298Z,21.81
2022-08-11T11:48:35.052Z,21.90
2022-08-11T11:50:39.246Z,22.56
2022-08-11T11:52:43.812Z,21.58
2022-08-11T11:54:50.168Z,21.80
2022-08-11T11:56:55.337Z,21.38
2022-08-11T11:59:18.499Z,21.43
2022-08-11T12:01:25.265Z,21.17
2022-08-11T12:03:28.952Z,21.82
2022-08-11T12:05:34.606Z,21.19
2022-08-11T12:08:05.171Z,21.24
2022-08-11T12:10:17.928Z,20.72
2022-08-11T12:12:40.060Z,20.64
2022-08-11T12:14:45.068Z,20.39
2022-08-11T12:16:49.685Z,20.33
2022-08-11T12:18:56.541Z,20.10
2022-08-11T12:21:01.462Z,20.10
2022-08-11T12:23:23.101Z,20.24
2022-08-11T12:25:44.566Z,20.20
2022-08-11T12:27:48.549Z,19.87
2022-08-11T12:29:57.407Z,20.41
2022-08-11T12:32:01.058Z,19.82
2022-08-11T12:34:05.639Z,20.16
2022-08-11T12:36:16.371Z,19.90
2022-08-11T12:38:21.948Z,19.92
2022-08-11T12:41:14.992Z,20.10
2022-08-11T12:43:38.399Z,19.76
2022-08-11T12:45:45.216Z,19.77
2022-08-11T12:48:58.747Z,20.28
2022-08-11T12:50:52.690Z,19.99
2022-08-11T12:52:57.014Z,19.68
2022-08-11T12:55:03.588Z,19.60
2022-08-11T12:57:37.247Z,20.16
2022-08-11T13:00:00.159Z,19.75
2022-08-11T13:02:23.502Z,20.37
2022-08-11T13:04:50.167Z,19.23
2022-08-11T13:06:55.500Z,19.54
2022-08-11T13:09:01.495Z,20.02
2022-08-11T13:11:23.517Z,19.85
2022-08-11T13:13:53.886Z,20.71
2022-08-11T13:15:52.293Z,20.30
2022-08-11T13:17:57.462Z,19.43
2022-08-11T13:20:03.787Z,18.53
2022-08-11T13:22:08.082Z,18.96
2022-08-11T13:24:11.621Z,19.12
2022-08-11T13:26:15.433Z,19.24
2022-08-11T13:28:21.299Z,19.95
2022-08-11T13:30:47.244Z,19.99
2022-08-11T13:32:52.693Z,19.78
2022-08-11T13:34:57.619Z,19.89
2022-08-11T13:37:04.253Z,19.37
2022-08-11T13:39:09.583Z,19.97
2022-08-11T13:41:30.229Z,19.69
2022-08-11T13:43:33.753Z,19.33
2022-08-11T13:45:38.538Z,19.37
2022-08-11T13:47:43.786Z,19.07
2022-08-11T13:49:47.915Z,19.31
2022-08-11T13:51:52.937Z,19.34
2022-08-11T13:54:02.041Z,19.11
2022-08-11T13:56:05.991Z,19.43
2022-08-11T13:58:20.529Z,19.26
2022-08-11T14:00:35.954Z,19.03
2022-08-11T14:02:43.133Z,19.28
2022-08-11T14:04:54.018Z,19.63
2022-08-11T14:07:00.083Z,19.42
2022-08-11T14:09:05.226Z,19.21
2022-08-11T14:12:23.022Z,19.30
2022-08-11T14:13:58.623Z,19.20
2022-08-11T14:16:08.011Z,18.67
2022-08-11T14:18:18.101Z,18.96
2022-08-11T14:20:39.775Z,18.57
2022-08-11T14:22:46.517Z,18.18
2022-08-11T14:24:50.478Z,18.98
2022-08-11T14:26:55.091Z,18.08
2022-08-11T14:29:02.368Z,17.69
2022-08-11T14:31:08.525Z,17.40
2022-08-11T14:33:16.842Z,17.65
2022-08-11T14:35:21.218Z,17.05
2022-08-11T14:37:29.087Z,17.70
2022-08-11T14:39:36.893Z,17.37
2022-08-11T14:42:07.508Z,16.73
2022-08-11T14:44:34.721Z,17.03
2022-08-11T14:46:57.724Z,17.06
2022-08-11T14:49:01.868Z,17.08
2022-08-11T14:51:06.436Z,16.35
2022-08-11T14:53:14.257Z,16.85
2022-08-11T14:55:43.552Z,16.93
2022-08-11T14:58:04.663Z,17.05
2022-08-11T15:00:12.826Z,17.04
2022-08-11T15:02:37.378Z,16.88
2022-08-11T15:04:41.321Z,17.06
2022-08-11T15:06:45.106Z,16.96
2022-08-11T15:08:58.161Z,17.23
2022-08-11T15:11:23.247Z,16.69
2022-08-11T15:13:26.904Z,17.10
2022-08-11T15:15:49.467Z,17.08
2022-08-11T15:17:54.958Z,16.38
2022-08-11T15:20:18.200Z,16.18
2022-08-11T15:22:39.221Z,17.46
2022-08-11T15:24:42.868Z,16.60
2022-08-11T15:27:08.004Z,17.81
2022-08-11T15:29:31.156Z,17.04
2022-08-11T15:31:55.685Z,17.65
2022-08-11T15:34:21.729Z,18.05
2022-08-11T15:36:45.676Z,17.77
2022-08-11T15:38:55.757Z,16.72
2022-08-11T15:41:19.417Z,17.17
2022-08-11T15:43:44.909Z,17.14
2022-08-11T15:45:53.182Z,17.07
2022-08-11T15:48:05.894Z,17.23
2022-08-11T15:50:14.675Z,17.54
2022-08-11T15:52:22.972Z,16.84
2022-08-11T15:54:31.065Z,18.01
2022-08-11T15:56:37.047Z,16.81
2022-08-11T15:59:10.657Z,17.31
2022-08-11T16:01:47.901Z,17.41
2022-08-11T16:04:12.957Z,17.10
2022-08-11T16:06:18.125Z,17.40
2022-08-11T16:08:32.654Z,17.54
2022-08-11T16:10:39.066Z,17.80
2022-08-11T16:13:20.273Z,16.90
2022-08-11T16:15:43.554Z,16.98
2022-08-11T16:17:51.276Z,17.30
2022-08-11T16:19:57.721Z,17.36
2022-08-11T16:22:01.333Z,17.19
2022-08-11T16:24:08.624Z,17.28
2022-08-11T16:27:08.256Z,17.01
2022-08-11T16:29:01.192Z,17.46
2022-08-11T16:31:10.849Z,17.43
2022-08-11T16:33:48.255Z,17.28
2022-08-11T16:35:58.449Z,17.40
2022-08-11T16:38:22.966Z,17.33
2022-08-11T16:40:27.316Z,17.38
2022-08-11T16:43:02.409Z,17.58
2022-08-11T16:45:32.140Z,18.10
2022-08-11T16:48:02.991Z,17.51
2022-08-11T16:50:01.318Z,17.54
2022-08-11T16:52:10.894Z,17.12
2022-08-11T16:54:16.050Z,18.01
2022-08-11T16:56:22.264Z,16.96
2022-08-11T16:58:43.613Z,17.43
2022-08-11T17:00:48.333Z,17.25
2022-08-11T17:03:12.716Z,17.57
2022-08-11T17:05:54.525Z,17.92
2022-08-11T17:08:27.703Z,17.44
2022-08-11T17:10:56.658Z,17.49
2022-08-11T17:13:12.156Z,17.87
2022-08-11T17:15:35.554Z,17.50
2022-08-11T17:17:40.656Z,17.77
2022-08-11T17:20:41.687Z,18.10
2022-08-11T17:22:31.546Z,18.45
2022-08-11T17:24:38.044Z,18.51
2022-08-11T17:26:57.034Z,18.60
2022-08-11T17:29:02.037Z,18.76
2022-08-11T17:31:24.650Z,18.57
2022-08-11T17:33:48.025Z,18.94
2022-08-11T17:35:53.082Z,19.16
2022-08-11T17:37:58.346Z,19.09
2022-08-11T17:40:05.148Z,19.05
2022-08-11T17:42:27.690Z,19.30
2022-08-11T17:44:51.072Z,19.44
2022-08-11T17:47:12.665Z,19.91
2022-08-11T17:49:20.377Z,19.94
2022-08-11T17:51:42.652Z,20.06
2022-08-11T17:54:23.864Z,19.82
2022-08-11T17:56:48.934Z,20.37
2022-08-11T17:59:12.752Z,20.44
2022-08-11T18:01:17.971Z,20.45
2022-08-11T18:03:33.068Z,20.21
2022-08-11T18:05:39.221Z,20.58
2022-08-11T18:08:03.758Z,21.17
2022-08-11T18:10:27.411Z,21.40
2022-08-11T18:12:48.485Z,21.00
2022-08-11T18:15:12.425Z,21.47
2022-08-11T18:17:33.390Z,21.92
2022-08-11T18:19:54.906Z,21.84
2022-08-11T18:22:22.157Z,22.25
2022-08-11T18:24:48.974Z,22.12
2022-08-11T18:27:12.141Z,22.14
2022-08-11T18:29:41.845Z,22.15
2022-08-11T18:32:08.291Z,22.85
2022-08-11T18:34:35.026Z,22.35
2022-08-11T18:37:00.321Z,22.96
2022-08-11T18:39:22.872Z,22.66
2022-08-11T18:41:47.513Z,22.73
2022-08-11T18:44:09.630Z,22.95
2022-08-11T18:46:33.805Z,23.00
2022-08-11T18:49:00.719Z,23.68
2022-08-11T18:51:30.501Z,24.12
2022-08-11T18:54:01.805Z,23.90
2022-08-11T18:56:23.322Z,23.67
2022-08-11T18:58:48.146Z,23.96
2022-08-11T19:01:13.352Z,24.38
2022-08-11T19:03:43.472Z,25.33
2022-08-11T19:06:38.053Z,24.48
2022-08-11T19:08:56.563Z,24.48
2022-08-11T19:11:18.305Z,24.34
2022-08-11T19:13:43.832Z,24.61
2022-08-11T19:16:07.907Z,25.13
2022-08-11T19:18:32.604Z,25.49
2022-08-11T19:20:55.216Z,25.51
2022-08-11T19:23:18.106Z,24.86
2022-08-11T19:25:41.126Z,25.36
2022-08-11T19:28:05.220Z,25.88
2022-08-11T19:30:26.704Z,26.42
2022-08-11T19:32:49.942Z,26.70
2022-08-11T19:35:11.911Z,26.50
2022-08-11T19:37:44.263Z,27.23
2022-08-11T19:40:06.391Z,27.54
2022-08-11T19:42:29.259Z,26.57
2022-08-11T19:44:50.942Z,26.54
2022-08-11T19:47:12.661Z,26.88
2022-08-11T19:49:37.354Z,26.85
2022-08-11T19:51:59.441Z,26.36
2022-08-11T19:54:21.442Z,26.92
2022-08-11T19:56:42.980Z,27.21
2022-08-11T19:59:05.005Z,26.95
2022-08-11T20:01:26.004Z,27.19
2022-08-11T20:03:46.934Z,27.33
2022-08-11T20:06:09.723Z,27.77
2022-08-11T20:08:32.329Z,27.10
2022-08-11T20:10:55.133Z,26.97
2022-08-11T20:13:21.594Z,27.73
2022-08-11T20:15:45.250Z,27.51
2022-08-11T20:18:06.691Z,27.77
2022-08-11T20:20:30.629Z,27.80
2022-08-11T20:22:53.817Z,28.53
2022-08-11T20:25:14.969Z,28.08
2022-08-11T20:27:36.352Z,28.36
2022-08-11T20:29:57.185Z,28.26
2022-08-11T20:32:19.390Z,28.29
2022-08-11T20:34:40.601Z,28.30
2022-08-11T20:37:02.535Z,28.42
2022-08-11T20:39:26.592Z,28.42
2022-08-11T20:41:58.826Z,28.18
2022-08-11T20:44:21.692Z,28.70
2022-08-11T20:46:44.098Z,28.44
2022-08-11T20:49:06.525Z,28.69
2022-08-11T20:51:36.742Z,29.20
2022-08-11T20:54:05.309Z,28.90
2022-08-11T20:56:30.210Z,28.86
2022-08-11T21:01:38.245Z,29.21
2022-08-11T21:03:59.768Z,29.92
2022-08-11T21:06:31.583Z,29.92
2022-08-11T21:08:56.101Z,29.58
2022-08-11T21:11:27.451Z,30.00
2022-08-11T21:13:55.993Z,29.29
2022-08-11T21:16:25.291Z,29.59
2022-08-11T21:18:51.225Z,30.05
2022-08-11T21:21:16.439Z,30.12
2022-08-11T21:23:39.002Z,30.55
2022-08-11T21:26:05.842Z,30.51
2022-08-11T21:28:29.690Z,29.34
2022-08-11T21:30:55.786Z,29.64
2022-08-11T21:33:20.774Z,29.59
2022-08-11T21:35:45.257Z,29.83
2022-08-11T21:38:09.089Z,30.58
2022-08-11T21:40:33.863Z,30.83
2022-08-11T21:42:59.196Z,31.72
2022-08-11T21:45:20.917Z,31.39
2022-08-11T21:47:44.857Z,30.50
2022-08-11T21:50:06.585Z,32.29
2022-08-11T21:52:28.781Z,31.35
2022-08-11T21:54:50.432Z,31.26
2022-08-11T21:57:13.154Z,31.49
2022-08-11T21:59:40.074Z,31.78
2022-08-11T22:02:02.251Z,32.12
2022-08-11T22:04:26.008Z,31.84
2022-08-11T22:06:48.238Z,31.42
2022-08-11T22:09:09.273Z,31.74
2022-08-11T22:11:32.493Z,31.43
2022-08-11T22:14:01.145Z,32.05
2022-08-11T22:16:29.377Z,31.92
2022-08-11T22:18:54.057Z,31.63
2022-08-11T22:21:56.258Z,32.29
2022-08-11T22:24:00.214Z,32.68
2022-08-11T22:26:22.406Z,31.72
2022-08-11T22:28:43.618Z,31.78
2022-08-11T22:31:04.687Z,31.66
2022-08-11T22:33:28.890Z,32.63
2022-08-11T22:35:50.604Z,32.63
2022-08-11T22:38:14.640Z,32.41
2022-08-11T22:40:35.623Z,32.49
2022-08-11T22:42:56.588Z,32.69
2022-08-11T22:45:17.634Z,32.97
2022-08-11T22:47:40.851Z,33.06
2022-08-11T22:50:05.570Z,33.15
2022-08-11T22:52:28.188Z,33.36
2022-08-11T22:54:50.848Z,33.59
2022-08-11T22:57:12.222Z,34.60
2022-08-11T22:59:34.260Z,33.96
2022-08-11T23:01:57.633Z,34.00
2022-08-11T23:04:19.589Z,34.03
2022-08-11T23:06:40.965Z,34.01
2022-08-11T23:09:02.658Z,33.85
2022-08-11T23:11:25.931Z,33.99
2022-08-11T23:14:07.047Z,34.09
2022-08-11T23:16:28.611Z,34.55
2022-08-11T23:18:49.695Z,34.03
2022-08-11T23:21:11.284Z,33.95
2022-08-11T23:23:33.455Z,33.70
2022-08-11T23:25:55.394Z,33.52
2022-08-11T23:28:19.797Z,34.57
2022-08-11T23:30:42.620Z,33.77
2022-08-11T23:33:05.294Z,34.66
2022-08-11T23:35:40.248Z,34.24
2022-08-11T23:38:08.279Z,33.57
2022-08-11T23:40:29.543Z,34.36
2022-08-11T23:42:55.304Z,34.20
2022-08-11T23:45:22.694Z,34.38
2022-08-11T23:47:50.867Z,34.02
2022-08-11T23:50:12.978Z,34.00
2022-08-11T23:52:40.020Z,34.18
2022-08-11T23:55:03.164Z,34.52
2022-08-11T23:57:24.414Z,34.39
2022-08-11T23:59:45.208Z,34.18
